createdAt,value
2018-12-03T00:01:06.922Z,22.90
2018-12-03T00:03:36.536Z,29.83
2018-12-03T00:06:06.063Z,23.70
2018-12-03T00:08:35.567Z,25.43
2018-12-03T00:11:04.980Z,23.50
2018-12-03T00:13:34.113Z,21.53
2018-12-03T00:16:03.347Z,24.57
2018-12-03T00:18:32.533Z,24.10
2018-12-03T00:21:01.700Z,26.37
2018-12-03T00:23:30.768Z,30.93
2018-12-03T00:26:00.060Z,28.77
2018-12-03T00:28:29.235Z,27.10
2018-12-03T00:30:58.683Z,22.37
2018-12-03T00:33:29.142Z,27.90
2018-12-03T00:35:58.428Z,27.53
2018-12-03T00:38:27.609Z,27.07
2018-12-03T00:40:56.926Z,30.40
2018-12-03T00:43:26.339Z,29.73
2018-12-03T00:45:55.657Z,26.83
2018-12-03T00:48:24.892Z,24.03
2018-12-03T00:50:54.168Z,23.33
2018-12-03T00:53:23.223Z,26.10
2018-12-03T00:55:52.458Z,24.40
2018-12-03T00:58:21.891Z,22.80
2018-12-03T01:00:51.347Z,23.37
2018-12-03T01:03:20.794Z,18.77
2018-12-03T01:05:50.202Z,22.93
2018-12-03T01:08:19.653Z,18.27
2018-12-03T01:10:48.988Z,18.83
2018-12-03T01:13:18.276Z,17.93
2018-12-03T01:15:47.704Z,16.03
2018-12-03T01:18:17.847Z,18.67
2018-12-03T01:20:47.114Z,20.23
2018-12-03T01:23:16.538Z,22.77
2018-12-03T01:25:46.098Z,21.43
2018-12-03T01:28:15.338Z,20.63
2018-12-03T01:30:44.759Z,20.03
2018-12-03T01:33:14.131Z,25.47
2018-12-03T01:35:43.432Z,28.03
2018-12-03T01:38:12.731Z,25.57
2018-12-03T01:40:42.160Z,26.40
2018-12-03T01:43:12.316Z,26.70
2018-12-03T01:48:38.890Z,30.47
2018-12-03T01:51:08.489Z,35.00
2018-12-03T01:53:37.762Z,29.93
2018-12-03T01:56:07.011Z,26.47
2018-12-03T01:58:36.387Z,24.57
2018-12-03T02:01:07.610Z,30.50
2018-12-03T02:03:36.722Z,27.57
2018-12-03T02:06:05.996Z,30.63
2018-12-03T02:08:35.179Z,28.80
2018-12-03T02:11:04.655Z,26.67
2018-12-03T02:13:33.836Z,26.77
2018-12-03T02:16:03.175Z,29.27
2018-12-03T02:18:33.250Z,28.83
2018-12-03T02:21:02.600Z,33.40
2018-12-03T02:23:31.830Z,30.73
2018-12-03T02:26:01.217Z,28.60
2018-12-03T02:28:30.605Z,33.37
2018-12-03T02:30:59.834Z,30.80
2018-12-03T02:33:29.020Z,28.23
2018-12-03T02:35:58.228Z,34.73
2018-12-03T02:38:27.515Z,33.37
2018-12-03T02:40:56.876Z,33.23
2018-12-03T02:43:26.437Z,28.97
2018-12-03T02:45:55.793Z,30.17
2018-12-03T02:48:25.035Z,28.87
2018-12-03T02:50:54.640Z,25.77
2018-12-03T02:53:23.962Z,33.00
2018-12-03T02:55:53.189Z,27.77
2018-12-03T02:58:22.454Z,28.43
2018-12-03T03:00:52.296Z,34.08
2018-12-03T03:03:21.853Z,32.23
2018-12-03T03:05:54.478Z,34.53
2018-12-03T03:08:24.646Z,27.73
2018-12-03T03:10:53.885Z,27.30
2018-12-03T03:13:22.991Z,26.33
2018-12-03T03:15:52.676Z,32.30
2018-12-03T03:18:21.847Z,27.60
2018-12-03T03:20:51.007Z,29.53
2018-12-03T03:23:20.153Z,34.30
2018-12-03T03:25:49.296Z,33.23
2018-12-03T03:28:18.384Z,27.70
2018-12-03T03:30:47.451Z,31.43
2018-12-03T03:33:16.753Z,32.00
2018-12-03T03:35:46.023Z,30.60
2018-12-03T03:38:15.304Z,33.50
2018-12-03T03:40:44.401Z,30.73
2018-12-03T03:43:13.546Z,30.33
2018-12-03T03:45:42.918Z,34.50
2018-12-03T03:48:12.110Z,31.67
2018-12-03T03:50:42.011Z,29.80
2018-12-03T03:53:11.450Z,33.40
2018-12-03T03:55:40.904Z,32.93
2018-12-03T03:58:10.154Z,30.27
2018-12-03T04:00:39.441Z,33.67
2018-12-03T04:03:08.848Z,33.37
2018-12-03T04:05:37.950Z,30.43
2018-12-03T04:08:07.211Z,33.13
2018-12-03T04:10:36.970Z,34.37
2018-12-03T04:13:06.398Z,37.00
2018-12-03T04:15:35.750Z,43.47
2018-12-03T04:18:05.272Z,36.93
2018-12-03T04:20:34.405Z,31.03
2018-12-03T04:23:04.343Z,36.33
2018-12-03T04:25:33.662Z,45.43
2018-12-03T04:28:02.844Z,36.93
2018-12-03T04:30:32.201Z,33.60
2018-12-03T04:33:01.575Z,35.47
2018-12-03T04:35:30.994Z,37.10
2018-12-03T04:38:00.195Z,35.80
2018-12-03T04:40:29.603Z,28.70
2018-12-03T04:42:58.669Z,32.53
2018-12-03T04:45:28.434Z,39.70
2018-12-03T04:47:57.990Z,30.33
2018-12-03T04:50:27.287Z,32.10
2018-12-03T04:53:00.021Z,32.17
2018-12-03T04:55:29.667Z,27.03
2018-12-03T04:57:58.917Z,27.27
2018-12-03T05:00:28.129Z,26.80
2018-12-03T05:02:57.183Z,27.53
2018-12-03T05:05:26.281Z,27.97
2018-12-03T05:07:55.661Z,26.10
2018-12-03T05:10:25.068Z,30.70
2018-12-03T05:12:54.664Z,29.60
2018-12-03T05:15:24.218Z,34.57
2018-12-03T05:17:53.716Z,32.17
2018-12-03T05:20:24.357Z,30.23
2018-12-03T05:22:53.653Z,37.73
2018-12-03T05:25:22.831Z,27.37
2018-12-03T05:27:52.070Z,27.30
2018-12-03T05:30:21.444Z,23.03
2018-12-03T05:32:50.915Z,25.87
2018-12-03T05:35:22.918Z,23.37
2018-12-03T05:37:52.141Z,31.10
2018-12-03T05:40:23.294Z,31.33
2018-12-03T05:42:52.635Z,26.30
2018-12-03T05:45:21.686Z,28.57
2018-12-03T05:47:50.794Z,31.77
2018-12-03T05:50:20.142Z,30.40
2018-12-03T05:52:49.637Z,27.23
2018-12-03T05:55:18.765Z,33.50
2018-12-03T05:57:48.062Z,32.87
2018-12-03T06:00:18.981Z,33.50
2018-12-03T06:02:48.529Z,35.27
2018-12-03T06:05:18.379Z,39.40
2018-12-03T06:07:47.723Z,38.47
2018-12-03T06:10:19.205Z,45.90
2018-12-03T06:12:49.198Z,36.77
2018-12-03T06:15:19.633Z,34.53
2018-12-03T06:17:50.346Z,35.67
2018-12-03T06:20:20.385Z,33.97
2018-12-03T06:22:51.653Z,33.63
2018-12-03T06:25:22.651Z,31.63
2018-12-03T06:27:52.304Z,29.50
2018-12-03T06:30:22.721Z,29.83
2018-12-03T06:32:52.319Z,29.23
2018-12-03T06:35:21.857Z,25.70
2018-12-03T06:37:51.367Z,28.40
2018-12-03T06:40:22.891Z,30.60
2018-12-03T06:42:52.162Z,31.40
2018-12-03T06:45:23.118Z,32.33
2018-12-03T06:47:54.485Z,32.77
2018-12-03T06:50:24.036Z,33.53
2018-12-03T06:52:53.500Z,32.90
2018-12-03T06:55:22.706Z,29.90
2018-12-03T06:57:52.157Z,34.17
2018-12-03T07:00:22.638Z,30.40
2018-12-03T07:02:51.773Z,32.47
2018-12-03T07:05:24.665Z,28.47
2018-12-03T07:07:55.389Z,27.13
2018-12-03T07:10:25.062Z,26.07
2018-12-03T07:12:58.961Z,25.83
2018-12-03T07:15:29.297Z,27.23
2018-12-03T07:17:58.530Z,27.13
2018-12-03T07:20:27.640Z,30.33
2018-12-03T07:22:56.730Z,27.93
2018-12-03T07:25:26.032Z,25.33
2018-12-03T07:27:55.183Z,28.00
2018-12-03T07:30:25.391Z,22.63
2018-12-03T07:32:54.604Z,26.07
2018-12-03T07:35:24.402Z,27.90
2018-12-03T07:37:55.361Z,28.47
2018-12-03T07:40:24.841Z,20.80
2018-12-03T07:42:54.300Z,28.47
2018-12-03T07:45:24.757Z,24.77
2018-12-03T07:47:54.095Z,28.73
2018-12-03T07:50:24.770Z,24.40
2018-12-03T07:52:54.293Z,22.13
2018-12-03T07:55:25.456Z,22.70
2018-12-03T07:58:02.197Z,24.53
2018-12-03T08:00:34.170Z,22.13
2018-12-03T08:03:03.335Z,19.83
2018-12-03T08:05:32.438Z,19.90
2018-12-03T08:08:01.900Z,21.97
2018-12-03T08:10:31.178Z,24.63
2018-12-03T08:13:36.980Z,21.03
2018-12-03T08:16:05.241Z,22.80
2018-12-03T08:18:33.448Z,18.60
2018-12-03T08:21:01.619Z,26.80
2018-12-03T08:23:29.863Z,25.80
2018-12-03T08:25:58.048Z,20.03
2018-12-03T08:28:26.369Z,19.27
2018-12-03T08:30:54.538Z,16.93
2018-12-03T08:33:23.561Z,24.83
2018-12-03T08:35:51.738Z,17.97
2018-12-03T08:38:19.923Z,21.93
2018-12-03T08:40:48.248Z,24.37
2018-12-03T08:43:16.484Z,26.70
2018-12-03T08:45:44.660Z,20.00
2018-12-03T08:48:12.917Z,22.23
2018-12-03T08:50:41.130Z,29.73
2018-12-03T08:53:09.603Z,25.07
2018-12-03T08:55:37.861Z,21.73
2018-12-03T08:58:09.760Z,21.37
2018-12-03T09:00:37.924Z,18.93
2018-12-03T09:03:06.219Z,26.37
2018-12-03T09:05:34.364Z,18.07
2018-12-03T09:08:02.590Z,32.50
2018-12-03T09:10:30.876Z,24.10
2018-12-03T09:13:03.111Z,25.63
2018-12-03T09:15:31.320Z,20.43
2018-12-03T09:17:59.588Z,18.87
2018-12-03T09:20:27.813Z,27.20
2018-12-03T09:22:55.993Z,25.10
2018-12-03T09:25:24.225Z,17.40
2018-12-03T09:27:52.502Z,22.27
2018-12-03T09:30:20.884Z,21.27
2018-12-03T09:32:49.165Z,22.00
2018-12-03T09:35:17.457Z,24.50
2018-12-03T09:37:46.186Z,21.10
2018-12-03T09:40:14.374Z,23.37
2018-12-03T09:42:42.672Z,32.70
2018-12-03T09:45:10.995Z,24.63
2018-12-03T09:47:39.331Z,26.03
2018-12-03T09:50:13.080Z,17.30
2018-12-03T09:52:42.051Z,36.07
2018-12-03T09:55:11.145Z,24.87
2018-12-03T09:57:39.321Z,28.17
2018-12-03T10:00:12.738Z,23.80
2018-12-03T10:02:41.081Z,29.67
2018-12-03T10:05:09.384Z,23.63
2018-12-03T10:07:37.619Z,24.97
2018-12-03T10:10:09.502Z,23.87
2018-12-03T10:12:37.785Z,19.67
2018-12-03T10:15:06.883Z,18.87
2018-12-03T10:17:35.059Z,23.67
2018-12-03T10:20:03.761Z,27.93
2018-12-03T10:22:31.999Z,25.27
2018-12-03T10:25:04.419Z,20.70
2018-12-03T10:27:32.648Z,25.67
2018-12-03T10:30:05.958Z,29.47
2018-12-03T10:32:34.184Z,21.30
2018-12-03T10:35:02.491Z,28.10
2018-12-03T10:37:30.639Z,26.90
2018-12-03T10:39:58.905Z,22.23
2018-12-03T10:42:27.086Z,21.20
2018-12-03T10:44:55.501Z,24.43
2018-12-03T10:47:23.823Z,25.33
2018-12-03T10:49:52.008Z,24.37
2018-12-03T10:52:20.176Z,23.27
2018-12-03T10:54:48.357Z,30.43
2018-12-03T10:57:16.668Z,34.40
2018-12-03T10:59:47.646Z,23.63
2018-12-03T11:02:21.599Z,27.13
2018-12-03T11:04:51.833Z,26.37
2018-12-03T11:07:20.328Z,25.57
2018-12-03T11:09:48.701Z,27.27
2018-12-03T11:12:17.055Z,24.07
2018-12-03T11:14:45.270Z,25.00
2018-12-03T11:17:13.670Z,24.20
2018-12-03T11:19:45.672Z,32.90
2018-12-03T11:22:18.583Z,23.10
2018-12-03T11:24:47.075Z,24.27
2018-12-03T11:27:15.649Z,28.73
2018-12-03T11:29:44.254Z,28.70
2018-12-03T11:32:16.628Z,30.70
2018-12-03T11:34:44.904Z,32.40
2018-12-03T11:37:13.601Z,30.43
2018-12-03T11:39:43.740Z,30.50
2018-12-03T11:42:12.044Z,24.37
2018-12-03T11:44:40.339Z,31.20
2018-12-03T11:47:08.948Z,29.57
2018-12-03T11:49:37.109Z,27.13
2018-12-03T11:52:05.607Z,29.30
2018-12-03T11:54:33.873Z,34.73
2018-12-03T11:57:02.062Z,29.10
2018-12-03T11:59:30.399Z,28.43
2018-12-03T12:01:58.665Z,36.43
2018-12-03T12:04:26.865Z,23.50
2018-12-03T12:06:55.048Z,27.33
2018-12-03T12:09:23.346Z,26.60
2018-12-03T12:11:51.610Z,20.93
2018-12-03T12:14:19.860Z,28.53
2018-12-03T12:16:48.099Z,25.47
2018-12-03T12:19:16.362Z,25.93
2018-12-03T12:21:44.551Z,30.50
2018-12-03T12:24:12.780Z,32.03
2018-12-03T12:26:41.024Z,26.47
2018-12-03T12:29:09.344Z,23.30
2018-12-03T12:31:37.601Z,26.53
2018-12-03T12:34:06.200Z,27.33
2018-12-03T12:36:34.462Z,21.70
2018-12-03T12:39:04.605Z,21.87
2018-12-03T12:41:32.807Z,29.53
2018-12-03T12:44:01.127Z,20.27
2018-12-03T12:46:29.332Z,30.70
2018-12-03T12:48:57.527Z,29.13
2018-12-03T12:51:25.785Z,23.03
2018-12-03T12:53:54.019Z,22.97
2018-12-03T12:56:24.086Z,26.77
2018-12-03T12:58:52.583Z,27.03
2018-12-03T13:01:20.847Z,24.63
2018-12-03T13:03:49.102Z,21.83
2018-12-03T13:06:17.492Z,24.60
2018-12-03T13:08:45.649Z,23.60
2018-12-03T13:11:13.858Z,25.40
2018-12-03T13:13:42.003Z,19.90
2018-12-03T13:16:10.170Z,21.67
2018-12-03T13:18:38.454Z,28.13
2018-12-03T13:21:06.655Z,29.20
2018-12-03T13:23:34.935Z,26.97
2018-12-03T13:26:03.159Z,24.00
2018-12-03T13:28:31.366Z,30.27
2018-12-03T13:30:59.520Z,24.03
2018-12-03T13:33:27.783Z,29.50
2018-12-03T13:35:56.093Z,33.63
2018-12-03T13:38:24.221Z,32.33
2018-12-03T13:40:52.387Z,35.27
2018-12-03T13:43:20.687Z,28.00
2018-12-03T13:45:49.023Z,24.23
2018-12-03T13:48:17.172Z,21.73
2018-12-03T13:50:45.326Z,23.73
2018-12-03T13:53:13.545Z,24.13
2018-12-03T13:55:41.783Z,25.47
2018-12-03T13:58:09.987Z,26.23
2018-12-03T14:00:38.295Z,28.40
2018-12-03T14:03:06.832Z,23.17
2018-12-03T14:05:35.171Z,27.57
2018-12-03T14:08:03.593Z,25.77
2018-12-03T14:10:32.069Z,25.40
2018-12-03T14:13:00.334Z,29.63
2018-12-03T14:15:28.634Z,29.23
2018-12-03T14:17:57.136Z,28.97
2018-12-03T14:20:25.399Z,24.77
2018-12-03T14:22:53.577Z,29.53
2018-12-03T14:25:21.792Z,29.57
2018-12-03T14:27:50.226Z,31.23
2018-12-03T14:30:18.391Z,27.50
2018-12-03T14:32:46.777Z,33.17
2018-12-03T14:35:15.007Z,29.97
2018-12-03T14:37:43.214Z,26.97
2018-12-03T14:40:11.587Z,29.10
2018-12-03T14:42:39.774Z,33.70
2018-12-03T14:45:09.855Z,27.53
2018-12-03T14:47:38.251Z,30.17
2018-12-03T14:50:06.532Z,36.07
2018-12-03T14:52:34.738Z,22.90
2018-12-03T14:55:02.909Z,25.50
2018-12-03T14:57:31.093Z,21.47
2018-12-03T14:59:59.295Z,29.97
2018-12-03T15:02:27.548Z,26.07
2018-12-03T15:04:55.743Z,22.07
2018-12-03T15:07:24.278Z,27.90
2018-12-03T15:09:52.487Z,28.03
2018-12-03T15:12:20.791Z,22.97
2018-12-03T15:14:48.962Z,18.37
2018-12-03T15:17:17.185Z,27.17
2018-12-03T15:19:45.361Z,26.43
2018-12-03T15:22:13.502Z,27.33
2018-12-03T15:24:41.666Z,21.87
2018-12-03T15:27:09.837Z,34.87
2018-12-03T15:29:38.011Z,27.33
2018-12-03T15:32:07.132Z,24.77
2018-12-03T15:34:35.817Z,32.57
2018-12-03T15:37:04.026Z,25.10
2018-12-03T15:39:32.280Z,29.00
2018-12-03T15:42:00.455Z,26.50
2018-12-03T15:44:28.697Z,22.20
2018-12-03T15:46:56.872Z,23.23
2018-12-03T15:49:25.088Z,26.13
2018-12-03T15:51:53.273Z,21.60
2018-12-03T15:54:21.444Z,23.90
2018-12-03T15:56:49.710Z,29.50
2018-12-03T15:59:17.921Z,29.27
2018-12-03T16:01:46.342Z,19.73
2018-12-03T16:04:14.647Z,24.73
2018-12-03T16:06:42.892Z,28.90
2018-12-03T16:09:11.217Z,22.53
2018-12-03T16:11:39.415Z,26.43
2018-12-03T16:14:07.868Z,26.07
2018-12-03T16:16:36.118Z,29.47
2018-12-03T16:19:04.284Z,27.43
2018-12-03T16:21:32.573Z,23.37
2018-12-03T16:24:00.844Z,30.83
2018-12-03T16:26:29.014Z,27.07
2018-12-03T16:28:57.205Z,24.10
2018-12-03T16:31:25.574Z,28.87
2018-12-03T16:33:53.719Z,27.77
2018-12-03T16:36:21.921Z,31.47
2018-12-03T16:38:50.406Z,29.60
2018-12-03T16:41:20.251Z,28.40
2018-12-03T16:43:48.448Z,31.27
2018-12-03T16:46:16.717Z,27.40
2018-12-03T16:48:44.890Z,25.03
2018-12-03T16:51:13.223Z,27.40
2018-12-03T16:53:41.387Z,35.13
2018-12-03T16:56:09.597Z,30.63
2018-12-03T16:58:37.865Z,28.97
2018-12-03T17:01:06.198Z,24.90
2018-12-03T17:03:34.432Z,20.43
2018-12-03T17:06:02.643Z,18.10
2018-12-03T17:08:30.887Z,27.87
2018-12-03T17:10:59.068Z,32.30
2018-12-03T17:13:27.232Z,20.13
2018-12-03T17:15:55.477Z,25.67
2018-12-03T17:18:23.674Z,21.43
2018-12-03T17:20:52.042Z,32.70
2018-12-03T17:23:20.281Z,29.80
2018-12-03T17:25:48.692Z,38.67
2018-12-03T17:28:16.955Z,25.63
2018-12-03T17:30:45.202Z,31.37
2018-12-03T17:33:13.907Z,32.87
2018-12-03T17:35:42.255Z,36.23
2018-12-03T17:38:10.687Z,27.90
2018-12-03T17:40:38.884Z,36.57
2018-12-03T17:43:07.327Z,31.97
2018-12-03T17:45:35.648Z,41.00
2018-12-03T17:48:03.977Z,44.23
2018-12-03T17:50:32.155Z,30.50
2018-12-03T17:53:00.482Z,29.00
2018-12-03T17:55:28.725Z,36.10
2018-12-03T17:57:56.965Z,36.40
2018-12-03T18:00:25.117Z,33.53
2018-12-03T18:02:53.328Z,46.70
2018-12-03T18:05:21.579Z,31.80
2018-12-03T18:07:49.743Z,33.63
2018-12-03T18:10:18.191Z,40.10
2018-12-03T18:12:46.329Z,31.57
2018-12-03T18:15:14.517Z,28.93
2018-12-03T18:17:42.753Z,39.60
2018-12-03T18:20:10.910Z,39.20
2018-12-03T18:22:39.133Z,30.73
2018-12-03T18:25:07.366Z,31.00
2018-12-03T18:27:35.582Z,36.40
2018-12-03T18:30:04.990Z,26.97
2018-12-03T18:32:33.204Z,31.00
2018-12-03T18:35:01.530Z,29.90
2018-12-03T18:37:29.750Z,28.77
2018-12-03T18:39:57.983Z,36.97
2018-12-03T18:42:26.264Z,31.33
2018-12-03T18:44:54.615Z,33.10
2018-12-03T18:47:22.949Z,35.20
2018-12-03T18:49:51.216Z,27.93
2018-12-03T18:52:19.534Z,31.07
2018-12-03T18:54:47.702Z,34.20
2018-12-03T18:57:15.949Z,37.03
2018-12-03T18:59:44.141Z,30.90
2018-12-03T19:02:12.410Z,25.07
2018-12-03T19:04:40.607Z,35.27
2018-12-03T19:07:08.849Z,31.60
2018-12-03T19:09:37.033Z,30.47
2018-12-03T19:12:05.229Z,23.27
2018-12-03T19:14:33.785Z,28.87
2018-12-03T19:17:02.297Z,34.23
2018-12-03T19:19:30.549Z,25.63
2018-12-03T19:21:58.717Z,31.63
2018-12-03T19:24:26.881Z,27.90
2018-12-03T19:26:55.088Z,26.53
2018-12-03T19:29:23.390Z,20.07
2018-12-03T19:31:51.625Z,30.17
2018-12-03T19:34:19.820Z,28.00
2018-12-03T19:36:49.633Z,20.20
2018-12-03T19:39:18.022Z,24.80
2018-12-03T19:41:46.215Z,30.17
2018-12-03T19:44:14.463Z,23.67
2018-12-03T19:46:42.629Z,23.67
2018-12-03T19:49:10.896Z,27.23
2018-12-03T19:51:39.112Z,23.30
2018-12-03T19:54:07.289Z,28.53
2018-12-03T19:56:35.521Z,23.97
2018-12-03T19:59:03.720Z,31.47
2018-12-03T20:01:32.087Z,24.50
2018-12-03T20:04:00.459Z,30.10
2018-12-03T20:06:28.825Z,25.10
2018-12-03T20:08:57.010Z,28.43
2018-12-03T20:11:25.189Z,29.17
2018-12-03T20:13:53.515Z,31.97
2018-12-03T20:16:21.713Z,28.97
2018-12-03T20:18:50.228Z,22.73
2018-12-03T20:21:18.371Z,20.83
2018-12-03T20:23:46.558Z,24.83
2018-12-03T20:26:14.716Z,28.80
2018-12-03T20:28:42.915Z,22.07
2018-12-03T20:31:11.298Z,26.87
2018-12-03T20:33:39.771Z,28.70
2018-12-03T20:36:08.140Z,29.33
2018-12-03T20:38:36.536Z,33.10
2018-12-03T20:41:04.907Z,26.07
2018-12-03T20:43:33.123Z,23.47
2018-12-03T20:46:04.494Z,28.53
2018-12-03T20:48:35.422Z,26.23
2018-12-03T20:51:04.796Z,22.87
2018-12-03T20:53:33.119Z,18.70
2018-12-03T20:56:01.446Z,25.73
2018-12-03T20:58:29.727Z,23.70
2018-12-03T21:00:58.183Z,24.13
2018-12-03T21:03:26.769Z,22.10
2018-12-03T21:05:55.115Z,23.67
2018-12-03T21:08:23.279Z,19.67
2018-12-03T21:10:51.423Z,23.20
2018-12-03T21:13:19.695Z,17.77
2018-12-03T21:15:47.888Z,17.47
2018-12-03T21:18:16.147Z,23.20
2018-12-03T21:20:44.358Z,15.70
2018-12-03T21:23:12.565Z,15.93
2018-12-03T21:25:40.755Z,16.43
2018-12-03T21:28:09.230Z,13.97
2018-12-03T21:30:38.159Z,11.17
2018-12-03T21:33:06.400Z,14.10
2018-12-03T21:35:34.560Z,15.70
2018-12-03T21:38:02.735Z,13.23
2018-12-03T21:40:30.997Z,12.60
2018-12-03T21:42:59.198Z,14.97
2018-12-03T21:45:27.442Z,11.77
2018-12-03T21:47:55.739Z,9.00
2018-12-03T21:50:23.932Z,8.80
2018-12-03T21:52:52.212Z,12.43
2018-12-03T21:55:20.538Z,11.63
2018-12-03T21:57:49.034Z,17.00
2018-12-03T22:00:17.899Z,12.63
2018-12-03T22:02:46.090Z,10.80
2018-12-03T22:05:14.420Z,8.97
2018-12-03T22:07:42.673Z,11.77
2018-12-03T22:10:10.962Z,13.77
2018-12-03T22:12:39.192Z,8.77
2018-12-03T22:15:07.579Z,15.93
2018-12-03T22:17:36.000Z,7.07
2018-12-03T22:20:06.659Z,9.23
2018-12-03T22:22:34.868Z,8.97
2018-12-03T22:25:03.084Z,9.40
2018-12-03T22:27:31.324Z,9.23
2018-12-03T22:29:59.489Z,10.43
2018-12-03T22:32:27.663Z,10.50
2018-12-03T22:34:55.889Z,10.13
2018-12-03T22:37:25.334Z,7.53
2018-12-03T22:39:53.570Z,12.00
2018-12-03T22:42:21.793Z,9.73
2018-12-03T22:44:49.953Z,8.20
2018-12-03T22:47:18.257Z,13.83
2018-12-03T22:49:46.570Z,7.77
2018-12-03T22:52:15.054Z,10.77
2018-12-03T22:54:43.988Z,12.23
2018-12-03T22:57:12.215Z,14.33
2018-12-03T22:59:40.495Z,13.10
2018-12-03T23:02:08.717Z,5.57
2018-12-03T23:04:38.870Z,11.40
2018-12-03T23:07:07.105Z,11.03
2018-12-03T23:09:35.295Z,11.20
2018-12-03T23:12:03.707Z,11.07
2018-12-03T23:14:31.960Z,8.03
2018-12-03T23:17:00.175Z,9.53
2018-12-03T23:19:28.423Z,17.07
2018-12-03T23:21:56.882Z,8.87
2018-12-03T23:24:25.071Z,13.77
2018-12-03T23:26:53.263Z,13.07
2018-12-03T23:29:21.558Z,13.07
2018-12-03T23:31:49.805Z,11.50
2018-12-03T23:34:17.933Z,6.73
2018-12-03T23:36:46.205Z,10.87
2018-12-03T23:39:14.392Z,8.60
2018-12-03T23:41:42.597Z,12.97
2018-12-03T23:44:10.797Z,9.80
2018-12-03T23:46:38.988Z,16.13
2018-12-03T23:49:07.169Z,12.77
2018-12-03T23:51:36.246Z,12.03
2018-12-03T23:54:04.889Z,12.77
2018-12-03T23:56:33.100Z,10.90
2018-12-03T23:59:01.598Z,10.77
